sensor_id;sensor_type;location;lat;lon;timestamp;pressure;altitude;pressure_sealevel;temperature;humidity
59391;BME280;53405;57.012;40.984;2023-04-12T00:02:26;100330.34;;;5.60;75.96
59391;BME280;53405;57.012;40.984;2023-04-12T00:04:53;100317.69;;;5.55;76.46
59391;BME280;53405;57.012;40.984;2023-04-12T00:07:24;100313.69;;;5.51;76.49
59391;BME280;53405;57.012;40.984;2023-04-12T00:09:52;100323.44;;;5.49;76.84
59391;BME280;53405;57.012;40.984;2023-04-12T00:12:19;100284.25;;;5.20;77.21
59391;BME280;53405;57.012;40.984;2023-04-12T00:14:47;100285.91;;;5.11;77.31
59391;BME280;53405;57.012;40.984;2023-04-12T00:17:15;100322.31;;;5.22;77.66
59391;BME280;53405;57.012;40.984;2023-04-12T00:19:42;100321.50;;;5.22;77.63
59391;BME280;53405;57.012;40.984;2023-04-12T00:22:11;100318.91;;;5.22;77.42
59391;BME280;53405;57.012;40.984;2023-04-12T00:24:39;100317.38;;;5.19;77.11
59391;BME280;53405;57.012;40.984;2023-04-12T00:27:07;100314.03;;;5.07;77.54
59391;BME280;53405;57.012;40.984;2023-04-12T00:29:36;100316.63;;;5.07;77.88
59391;BME280;53405;57.012;40.984;2023-04-12T00:32:03;100310.88;;;5.04;77.92
59391;BME280;53405;57.012;40.984;2023-04-12T00:34:31;100309.63;;;4.98;78.17
59391;BME280;53405;57.012;40.984;2023-04-12T00:37:00;100318.16;;;5.00;78.53
59391;BME280;53405;57.012;40.984;2023-04-12T00:39:28;100315.81;;;4.97;78.69
59391;BME280;53405;57.012;40.984;2023-04-12T00:41:56;100315.81;;;4.97;78.55
59391;BME280;53405;57.012;40.984;2023-04-12T00:44:24;100282.09;;;4.75;78.50
59391;BME280;53405;57.012;40.984;2023-04-12T00:46:53;100281.53;;;4.71;78.73
59391;BME280;53405;57.012;40.984;2023-04-12T00:49:20;100307.50;;;4.82;78.64
59391;BME280;53405;57.012;40.984;2023-04-12T00:51:47;100320.44;;;4.84;78.57
59391;BME280;53405;57.012;40.984;2023-04-12T00:54:15;100312.44;;;4.76;78.67
59391;BME280;53405;57.012;40.984;2023-04-12T00:56:44;100320.78;;;4.69;78.72
59391;BME280;53405;57.012;40.984;2023-04-12T00:59:13;100322.28;;;4.62;78.58
59391;BME280;53405;57.012;40.984;2023-04-12T01:01:41;100319.09;;;4.59;78.39
59391;BME280;53405;57.012;40.984;2023-04-12T01:04:08;100302.56;;;4.39;78.36
59391;BME280;53405;57.012;40.984;2023-04-12T01:07:05;100313.31;;;4.55;78.44
59391;BME280;53405;57.012;40.984;2023-04-12T01:10:13;100321.16;;;4.55;78.79
59391;BME280;53405;57.012;40.984;2023-04-12T01:13:28;100320.47;;;4.53;78.87
59391;BME280;53405;57.012;40.984;2023-04-12T01:15:59;100311.06;;;4.41;79.09
59391;BME280;53405;57.012;40.984;2023-04-12T01:18:32;100319.72;;;4.41;78.84
59391;BME280;53405;57.012;40.984;2023-04-12T01:21:23;100320.81;;;4.39;78.70
59391;BME280;53405;57.012;40.984;2023-04-12T01:26:35;100331.75;;;4.32;79.21
59391;BME280;53405;57.012;40.984;2023-04-12T01:29:18;100318.03;;;4.30;78.82
59391;BME280;53405;57.012;40.984;2023-04-12T01:32:16;100323.25;;;4.30;79.14
59391;BME280;53405;57.012;40.984;2023-04-12T01:34:45;100316.94;;;4.33;79.40
59391;BME280;53405;57.012;40.984;2023-04-12T01:37:13;100298.75;;;4.22;79.57
59391;BME280;53405;57.012;40.984;2023-04-12T01:39:42;100315.47;;;4.40;79.45
59391;BME280;53405;57.012;40.984;2023-04-12T01:42:09;100326.97;;;4.38;79.42
59391;BME280;53405;57.012;40.984;2023-04-12T01:44:37;100316.81;;;4.34;79.35
59391;BME280;53405;57.012;40.984;2023-04-12T01:47:04;100313.63;;;4.31;79.29
59391;BME280;53405;57.012;40.984;2023-04-12T01:50:02;100323.94;;;4.32;79.36
59391;BME280;53405;57.012;40.984;2023-04-12T01:52:30;100312.34;;;4.25;79.43
59391;BME280;53405;57.012;40.984;2023-04-12T01:55:00;100315.44;;;4.30;79.76
59391;BME280;53405;57.012;40.984;2023-04-12T01:57:32;100309.31;;;4.20;79.74
59391;BME280;53405;57.012;40.984;2023-04-12T02:00:01;100324.06;;;4.31;79.78
59391;BME280;53405;57.012;40.984;2023-04-12T02:02:39;100324.31;;;4.28;79.52
59391;BME280;53405;57.012;40.984;2023-04-12T02:05:08;100319.75;;;4.20;79.35
59391;BME280;53405;57.012;40.984;2023-04-12T02:07:38;100316.72;;;4.15;79.32
59391;BME280;53405;57.012;40.984;2023-04-12T02:10:12;100312.69;;;4.11;79.41
59391;BME280;53405;57.012;40.984;2023-04-12T02:12:41;100300.00;;;3.96;79.72
59391;BME280;53405;57.012;40.984;2023-04-12T02:15:08;100300.94;;;3.95;79.74
59391;BME280;53405;57.012;40.984;2023-04-12T02:17:36;100312.75;;;4.00;79.85
59391;BME280;53405;57.012;40.984;2023-04-12T02:20:05;100312.75;;;4.00;79.72
59391;BME280;53405;57.012;40.984;2023-04-12T02:22:38;100308.75;;;3.95;80.15
59391;BME280;53405;57.012;40.984;2023-04-12T02:25:05;100307.13;;;3.94;80.43
59391;BME280;53405;57.012;40.984;2023-04-12T02:27:33;100305.44;;;3.93;80.46
59391;BME280;53405;57.012;40.984;2023-04-12T02:30:01;100298.94;;;3.88;80.55
59391;BME280;53405;57.012;40.984;2023-04-12T02:32:32;100302.97;;;3.92;80.72
59391;BME280;53405;57.012;40.984;2023-04-12T02:35:14;100316.00;;;3.92;80.67
59391;BME280;53405;57.012;40.984;2023-04-12T02:37:49;100311.03;;;3.89;80.78
59391;BME280;53405;57.012;40.984;2023-04-12T02:40:17;100302.66;;;3.85;80.96
59391;BME280;53405;57.012;40.984;2023-04-12T02:42:44;100310.34;;;3.87;80.79
59391;BME280;53405;57.012;40.984;2023-04-12T02:45:12;100315.44;;;3.88;80.89
59391;BME280;53405;57.012;40.984;2023-04-12T02:47:41;100313.78;;;3.87;81.11
59391;BME280;53405;57.012;40.984;2023-04-12T02:50:10;100300.31;;;3.82;80.87
59391;BME280;53405;57.012;40.984;2023-04-12T02:53:04;100308.69;;;3.86;80.81
59391;BME280;53405;57.012;40.984;2023-04-12T02:55:31;100305.41;;;3.84;80.74
59391;BME280;53405;57.012;40.984;2023-04-12T02:58:02;100304.88;;;3.90;80.48
59391;BME280;53405;57.012;40.984;2023-04-12T03:00:31;100282.44;;;3.77;80.59
59391;BME280;53405;57.012;40.984;2023-04-12T03:03:01;100309.22;;;4.01;80.30
59391;BME280;53405;57.012;40.984;2023-04-12T03:05:30;100308.41;;;4.10;80.35
59391;BME280;53405;57.012;40.984;2023-04-12T03:07:59;100314.78;;;4.17;80.48
59391;BME280;53405;57.012;40.984;2023-04-12T03:10:37;100310.84;;;4.23;80.23
59391;BME280;53405;57.012;40.984;2023-04-12T03:13:05;100314.59;;;4.30;80.09
59391;BME280;53405;57.012;40.984;2023-04-12T03:15:38;100312.00;;;4.40;79.55
59391;BME280;53405;57.012;40.984;2023-04-12T03:18:05;100309.22;;;4.52;79.21
59391;BME280;53405;57.012;40.984;2023-04-12T03:20:42;100306.91;;;4.59;78.52
59391;BME280;53405;57.012;40.984;2023-04-12T03:23:12;100319.56;;;4.64;78.58
59391;BME280;53405;57.012;40.984;2023-04-12T03:25:44;100310.75;;;4.65;78.70
59391;BME280;53405;57.012;40.984;2023-04-12T03:28:39;100312.16;;;4.69;78.19
59391;BME280;53405;57.012;40.984;2023-04-12T03:31:07;100304.31;;;4.69;78.37
59391;BME280;53405;57.012;40.984;2023-04-12T03:33:40;100303.63;;;4.67;78.86
59391;BME280;53405;57.012;40.984;2023-04-12T03:36:18;100318.53;;;4.86;78.71
59391;BME280;53405;57.012;40.984;2023-04-12T03:38:53;100313.88;;;4.99;78.14
59391;BME280;53405;57.012;40.984;2023-04-12T03:41:21;100317.09;;;5.13;77.99
59391;BME280;53405;57.012;40.984;2023-04-12T03:43:52;100298.22;;;5.09;77.52
59391;BME280;53405;57.012;40.984;2023-04-12T03:46:20;100314.63;;;5.21;77.43
59391;BME280;53405;57.012;40.984;2023-04-12T03:48:54;100322.31;;;5.22;77.53
59391;BME280;53405;57.012;40.984;2023-04-12T03:51:24;100326.03;;;5.30;77.17
59391;BME280;53405;57.012;40.984;2023-04-12T03:53:58;100320.13;;;5.37;77.18
59391;BME280;53405;57.012;40.984;2023-04-12T03:56:35;100322.34;;;5.52;77.30
59391;BME280;53405;57.012;40.984;2023-04-12T03:59:09;100321.53;;;5.71;76.83
59391;BME280;53405;57.012;40.984;2023-04-12T04:01:38;100320.25;;;5.85;76.45
59391;BME280;53405;57.012;40.984;2023-04-12T04:04:07;100325.38;;;5.96;75.98
59391;BME280;53405;57.012;40.984;2023-04-12T04:06:35;100321.25;;;6.03;75.78
59391;BME280;53405;57.012;40.984;2023-04-12T04:09:02;100332.53;;;6.13;74.88
59391;BME280;53405;57.012;40.984;2023-04-12T04:11:34;100332.34;;;6.35;74.84
59391;BME280;53405;57.012;40.984;2023-04-12T04:14:05;100331.06;;;6.48;74.22
59391;BME280;53405;57.012;40.984;2023-04-12T04:16:32;100321.78;;;6.54;73.80
59391;BME280;53405;57.012;40.984;2023-04-12T04:19:02;100328.78;;;6.63;73.68
59391;BME280;53405;57.012;40.984;2023-04-12T04:21:29;100331.22;;;6.75;73.65
59391;BME280;53405;57.012;40.984;2023-04-12T04:23:59;100322.34;;;6.85;73.81
59391;BME280;53405;57.012;40.984;2023-04-12T04:26:35;100328.31;;;7.05;72.19
59391;BME280;53405;57.012;40.984;2023-04-12T04:29:10;100327.59;;;7.13;71.73
59391;BME280;53405;57.012;40.984;2023-04-12T04:31:39;100336.25;;;7.14;72.09
59391;BME280;53405;57.012;40.984;2023-04-12T04:34:07;100327.28;;;7.16;71.72
59391;BME280;53405;57.012;40.984;2023-04-12T04:36:41;100330.00;;;7.24;71.82
59391;BME280;53405;57.012;40.984;2023-04-12T04:39:10;100333.09;;;7.38;71.89
59391;BME280;53405;57.012;40.984;2023-04-12T04:41:42;100330.75;;;7.53;70.87
59391;BME280;53405;57.012;40.984;2023-04-12T04:44:18;100320.94;;;7.55;70.31
59391;BME280;53405;57.012;40.984;2023-04-12T04:46:52;100327.16;;;7.72;69.85
59391;BME280;53405;57.012;40.984;2023-04-12T04:49:20;100296.34;;;7.74;69.39
59391;BME280;53405;57.012;40.984;2023-04-12T04:51:48;100321.41;;;8.12;68.71
59391;BME280;53405;57.012;40.984;2023-04-12T04:54:16;100324.84;;;8.39;68.21
59391;BME280;53405;57.012;40.984;2023-04-12T04:56:43;100321.06;;;8.68;68.89
59391;BME280;53405;57.012;40.984;2023-04-12T04:59:14;100315.69;;;8.78;66.96
59391;BME280;53405;57.012;40.984;2023-04-12T05:01:43;100329.03;;;8.84;68.34
59391;BME280;53405;57.012;40.984;2023-04-12T05:04:11;100326.00;;;9.06;67.45
59391;BME280;53405;57.012;40.984;2023-04-12T05:06:39;100334.38;;;9.17;65.36
59391;BME280;53405;57.012;40.984;2023-04-12T05:09:08;100310.41;;;9.12;64.88
59391;BME280;53405;57.012;40.984;2023-04-12T05:11:42;100327.34;;;9.34;64.26
59391;BME280;53405;57.012;40.984;2023-04-12T05:14:11;100325.09;;;9.48;63.44
59391;BME280;53405;57.012;40.984;2023-04-12T05:16:40;100333.81;;;9.73;62.94
59391;BME280;53405;57.012;40.984;2023-04-12T05:19:07;100322.63;;;9.95;61.89
59391;BME280;53405;57.012;40.984;2023-04-12T05:21:35;100323.78;;;10.09;63.12
59391;BME280;53405;57.012;40.984;2023-04-12T05:24:03;100330.81;;;10.25;62.49
59391;BME280;53405;57.012;40.984;2023-04-12T05:26:32;100325.22;;;10.28;61.77
59391;BME280;53405;57.012;40.984;2023-04-12T05:29:05;100324.75;;;10.25;60.18
59391;BME280;53405;57.012;40.984;2023-04-12T05:31:32;100303.34;;;10.28;61.70
59391;BME280;53405;57.012;40.984;2023-04-12T05:34:04;100302.19;;;10.30;62.93
59391;BME280;53405;57.012;40.984;2023-04-12T05:36:35;100319.44;;;10.49;62.30
59391;BME280;53405;57.012;40.984;2023-04-12T05:39:03;100322.88;;;10.58;62.56
59391;BME280;53405;57.012;40.984;2023-04-12T05:41:33;100329.44;;;10.71;62.42
59391;BME280;53405;57.012;40.984;2023-04-12T05:44:01;100321.34;;;10.72;61.39
59391;BME280;53405;57.012;40.984;2023-04-12T05:46:30;100323.09;;;10.80;62.01
59391;BME280;53405;57.012;40.984;2023-04-12T05:48:58;100322.38;;;11.02;61.59
59391;BME280;53405;57.012;40.984;2023-04-12T05:51:27;100328.25;;;11.36;60.33
59391;BME280;53405;57.012;40.984;2023-04-12T05:54:04;100339.88;;;11.50;60.24
59391;BME280;53405;57.012;40.984;2023-04-12T05:56:34;100334.19;;;11.61;61.14
59391;BME280;53405;57.012;40.984;2023-04-12T05:59:02;100336.47;;;11.64;59.99
59391;BME280;53405;57.012;40.984;2023-04-12T06:01:59;100338.94;;;11.66;60.41
59391;BME280;53405;57.012;40.984;2023-04-12T06:04:28;100351.88;;;11.75;59.23
59391;BME280;53405;57.012;40.984;2023-04-12T06:07:00;100342.28;;;11.83;59.16
59391;BME280;53405;57.012;40.984;2023-04-12T06:09:29;100344.84;;;11.91;59.12
59391;BME280;53405;57.012;40.984;2023-04-12T06:11:57;100328.84;;;11.92;59.31
59391;BME280;53405;57.012;40.984;2023-04-12T06:14:25;100332.53;;;12.06;58.19
59391;BME280;53405;57.012;40.984;2023-04-12T06:16:52;100325.38;;;12.30;57.82
59391;BME280;53405;57.012;40.984;2023-04-12T06:19:19;100324.09;;;12.26;55.32
59391;BME280;53405;57.012;40.984;2023-04-12T06:21:50;100337.19;;;12.34;54.96
59391;BME280;53405;57.012;40.984;2023-04-12T06:24:19;100334.84;;;12.39;55.81
59391;BME280;53405;57.012;40.984;2023-04-12T06:26:46;100327.03;;;12.46;54.46
59391;BME280;53405;57.012;40.984;2023-04-12T06:29:15;100321.47;;;12.56;53.89
59391;BME280;53405;57.012;40.984;2023-04-12T06:31:45;100297.97;;;12.46;55.09
59391;BME280;53405;57.012;40.984;2023-04-12T06:34:15;100321.72;;;12.61;53.85
59391;BME280;53405;57.012;40.984;2023-04-12T06:36:51;100319.19;;;12.68;53.06
59391;BME280;53405;57.012;40.984;2023-04-12T06:39:18;100329.47;;;12.77;52.65
59391;BME280;53405;57.012;40.984;2023-04-12T06:41:45;100330.72;;;12.81;52.15
59391;BME280;53405;57.012;40.984;2023-04-12T06:44:18;100319.88;;;12.91;53.93
59391;BME280;53405;57.012;40.984;2023-04-12T06:46:45;100331.16;;;13.00;52.29
59391;BME280;53405;57.012;40.984;2023-04-12T06:49:13;100323.13;;;13.08;52.04
59391;BME280;53405;57.012;40.984;2023-04-12T06:51:40;100329.25;;;12.94;50.81
59391;BME280;53405;57.012;40.984;2023-04-12T06:54:08;100321.13;;;13.10;50.04
59391;BME280;53405;57.012;40.984;2023-04-12T06:56:36;100318.03;;;13.28;49.62
59391;BME280;53405;57.012;40.984;2023-04-12T06:59:04;100312.69;;;13.22;48.90
59391;BME280;53405;57.012;40.984;2023-04-12T07:01:31;100272.06;;;13.08;49.98
59391;BME280;53405;57.012;40.984;2023-04-12T07:03:59;100318.78;;;13.59;48.04
59391;BME280;53405;57.012;40.984;2023-04-12T07:06:27;100313.34;;;13.67;49.22
59391;BME280;53405;57.012;40.984;2023-04-12T07:08:54;100318.38;;;13.83;48.10
59391;BME280;53405;57.012;40.984;2023-04-12T07:11:22;100335.06;;;14.05;46.32
59391;BME280;53405;57.012;40.984;2023-04-12T07:13:50;100298.75;;;13.99;44.60
59391;BME280;53405;57.012;40.984;2023-04-12T07:16:17;100314.69;;;14.06;44.15
59391;BME280;53405;57.012;40.984;2023-04-12T07:18:45;100326.16;;;14.13;45.54
59391;BME280;53405;57.012;40.984;2023-04-12T07:21:12;100317.38;;;14.13;45.92
59391;BME280;53405;57.012;40.984;2023-04-12T07:23:45;100317.72;;;14.38;45.02
59391;BME280;53405;57.012;40.984;2023-04-12T07:26:13;100315.88;;;14.32;43.94
59391;BME280;53405;57.012;40.984;2023-04-12T07:28:40;100295.22;;;14.20;42.41
59391;BME280;53405;57.012;40.984;2023-04-12T07:31:09;100307.66;;;14.55;43.16
59391;BME280;53405;57.012;40.984;2023-04-12T07:33:43;100315.47;;;14.63;43.33
59391;BME280;53405;57.012;40.984;2023-04-12T07:36:11;100313.44;;;14.65;43.02
59391;BME280;53405;57.012;40.984;2023-04-12T07:38:38;100317.59;;;14.81;42.23
59391;BME280;53405;57.012;40.984;2023-04-12T07:41:05;100291.34;;;14.58;39.44
59391;BME280;53405;57.012;40.984;2023-04-12T07:43:33;100308.56;;;14.69;39.83
59391;BME280;53405;57.012;40.984;2023-04-12T07:46:00;100318.78;;;14.78;39.34
59391;BME280;53405;57.012;40.984;2023-04-12T07:48:33;100316.59;;;14.89;40.99
59391;BME280;53405;57.012;40.984;2023-04-12T07:51:01;100314.94;;;14.81;39.24
59391;BME280;53405;57.012;40.984;2023-04-12T07:53:29;100314.44;;;15.06;38.84
59391;BME280;53405;57.012;40.984;2023-04-12T07:55:58;100313.25;;;15.22;38.71
59391;BME280;53405;57.012;40.984;2023-04-12T07:58:25;100315.50;;;15.31;38.35
59391;BME280;53405;57.012;40.984;2023-04-12T08:00:53;100320.00;;;15.31;41.52
59391;BME280;53405;57.012;40.984;2023-04-12T08:03:20;100305.69;;;15.39;37.64
59391;BME280;53405;57.012;40.984;2023-04-12T08:05:48;100313.44;;;15.20;36.56
59391;BME280;53405;57.012;40.984;2023-04-12T08:08:19;100301.44;;;15.31;36.56
59391;BME280;53405;57.012;40.984;2023-04-12T08:10:49;100324.91;;;15.47;36.98
59391;BME280;53405;57.012;40.984;2023-04-12T08:13:18;100323.09;;;15.61;37.48
59391;BME280;53405;57.012;40.984;2023-04-12T08:15:46;100316.78;;;15.69;38.03
59391;BME280;53405;57.012;40.984;2023-04-12T08:18:14;100313.34;;;16.02;36.72
59391;BME280;53405;57.012;40.984;2023-04-12T08:20:42;100310.84;;;16.27;35.36
59391;BME280;53405;57.012;40.984;2023-04-12T08:23:13;100307.09;;;16.48;34.79
59391;BME280;53405;57.012;40.984;2023-04-12T08:25:40;100317.06;;;16.66;34.79
59391;BME280;53405;57.012;40.984;2023-04-12T08:28:08;100319.41;;;17.01;35.06
59391;BME280;53405;57.012;40.984;2023-04-12T08:30:35;100318.06;;;17.56;34.29
59391;BME280;53405;57.012;40.984;2023-04-12T08:33:03;100316.28;;;18.00;33.76
59391;BME280;53405;57.012;40.984;2023-04-12T08:35:36;100313.75;;;18.30;31.08
59391;BME280;53405;57.012;40.984;2023-04-12T08:38:06;100324.00;;;18.70;30.48
59391;BME280;53405;57.012;40.984;2023-04-12T08:40:34;100307.84;;;18.65;31.39
59391;BME280;53405;57.012;40.984;2023-04-12T08:43:06;100310.78;;;18.75;30.47
59391;BME280;53405;57.012;40.984;2023-04-12T08:45:34;100316.81;;;18.89;30.37
59391;BME280;53405;57.012;40.984;2023-04-12T08:48:03;100312.50;;;19.19;30.63
59391;BME280;53405;57.012;40.984;2023-04-12T08:50:32;100309.59;;;19.50;30.09
59391;BME280;53405;57.012;40.984;2023-04-12T08:52:59;100304.63;;;18.93;30.66
59391;BME280;53405;57.012;40.984;2023-04-12T08:55:27;100302.28;;;18.85;31.87
59391;BME280;53405;57.012;40.984;2023-04-12T08:57:55;100299.75;;;18.72;32.69
59391;BME280;53405;57.012;40.984;2023-04-12T09:00:25;100298.28;;;18.57;31.34
59391;BME280;53405;57.012;40.984;2023-04-12T09:02:53;100292.88;;;18.64;31.50
59391;BME280;53405;57.012;40.984;2023-04-12T09:05:27;100286.25;;;19.16;31.58
59391;BME280;53405;57.012;40.984;2023-04-12T09:07:55;100285.41;;;19.34;30.33
59391;BME280;53405;57.012;40.984;2023-04-12T09:10:34;100275.41;;;19.41;31.25
59391;BME280;53405;57.012;40.984;2023-04-12T09:13:06;100283.63;;;20.05;29.17
59391;BME280;53405;57.012;40.984;2023-04-12T09:15:33;100266.56;;;20.06;29.33
59391;BME280;53405;57.012;40.984;2023-04-12T09:18:09;100269.41;;;19.57;29.96
59391;BME280;53405;57.012;40.984;2023-04-12T09:20:38;100282.03;;;19.80;29.73
59391;BME280;53405;57.012;40.984;2023-04-12T09:23:32;100265.00;;;19.75;29.40
59391;BME280;53405;57.012;40.984;2023-04-12T09:25:59;100243.47;;;19.34;30.60
59391;BME280;53405;57.012;40.984;2023-04-12T09:28:27;100260.59;;;19.68;29.98
59391;BME280;53405;57.012;40.984;2023-04-12T09:30:57;100258.88;;;20.21;29.72
59391;BME280;53405;57.012;40.984;2023-04-12T09:33:31;100246.19;;;20.17;30.36
59391;BME280;53405;57.012;40.984;2023-04-12T09:36:00;100264.56;;;20.25;29.84
59391;BME280;53405;57.012;40.984;2023-04-12T09:38:29;100262.47;;;20.03;31.74
59391;BME280;53405;57.012;40.984;2023-04-12T09:41:14;100267.09;;;20.32;30.04
59391;BME280;53405;57.012;40.984;2023-04-12T09:43:43;100262.44;;;20.27;29.85
59391;BME280;53405;57.012;40.984;2023-04-12T09:46:11;100267.13;;;19.73;29.75
59391;BME280;53405;57.012;40.984;2023-04-12T09:48:40;100265.66;;;18.74;31.04
59391;BME280;53405;57.012;40.984;2023-04-12T09:51:08;100252.50;;;19.09;31.21
59391;BME280;53405;57.012;40.984;2023-04-12T09:53:37;100255.66;;;18.69;30.84
59391;BME280;53405;57.012;40.984;2023-04-12T09:56:09;100252.19;;;18.69;31.77
59391;BME280;53405;57.012;40.984;2023-04-12T09:58:38;100244.66;;;18.96;31.00
59391;BME280;53405;57.012;40.984;2023-04-12T10:01:08;100219.00;;;18.95;31.68
59391;BME280;53405;57.012;40.984;2023-04-12T10:03:36;100247.13;;;19.75;31.29
59391;BME280;53405;57.012;40.984;2023-04-12T10:06:05;100243.50;;;19.58;30.52
59391;BME280;53405;57.012;40.984;2023-04-12T10:08:33;100201.59;;;19.46;30.26
59391;BME280;53405;57.012;40.984;2023-04-12T10:11:03;100183.22;;;19.74;29.66
59391;BME280;53405;57.012;40.984;2023-04-12T10:13:31;100222.00;;;20.24;29.36
59391;BME280;53405;57.012;40.984;2023-04-12T10:15:59;100232.72;;;20.12;29.14
59391;BME280;53405;57.012;40.984;2023-04-12T10:18:27;100218.63;;;19.22;30.22
59391;BME280;53405;57.012;40.984;2023-04-12T10:20:57;100186.44;;;18.74;31.19
59391;BME280;53405;57.012;40.984;2023-04-12T10:23:24;100186.78;;;18.66;31.22
59391;BME280;53405;57.012;40.984;2023-04-12T10:25:55;100217.56;;;18.32;33.42
59391;BME280;53405;57.012;40.984;2023-04-12T10:28:24;100199.00;;;18.06;31.56
59391;BME280;53405;57.012;40.984;2023-04-12T10:30:56;100218.22;;;18.27;30.69
59391;BME280;53405;57.012;40.984;2023-04-12T10:33:26;100211.50;;;18.06;30.89
59391;BME280;53405;57.012;40.984;2023-04-12T10:38:21;100218.97;;;17.72;31.70
59391;BME280;53405;57.012;40.984;2023-04-12T10:43:40;100211.28;;;17.39;32.91
59391;BME280;53405;57.012;40.984;2023-04-12T10:46:07;100202.69;;;17.11;33.41
59391;BME280;53405;57.012;40.984;2023-04-12T10:48:55;100211.94;;;17.34;32.62
59391;BME280;53405;57.012;40.984;2023-04-12T10:51:23;100212.13;;;17.39;33.05
59391;BME280;53405;57.012;40.984;2023-04-12T10:56:41;100209.28;;;17.34;33.20
59391;BME280;53405;57.012;40.984;2023-04-12T10:59:18;100185.31;;;17.34;32.71
59391;BME280;53405;57.012;40.984;2023-04-12T11:04:34;100202.75;;;17.05;34.11
59391;BME280;53405;57.012;40.984;2023-04-12T11:07:10;100193.31;;;17.34;33.54
59391;BME280;53405;57.012;40.984;2023-04-12T11:09:41;100196.72;;;17.66;32.70
59391;BME280;53405;57.012;40.984;2023-04-12T11:12:14;100193.44;;;19.18;31.14
59391;BME280;53405;57.012;40.984;2023-04-12T11:14:46;100194.34;;;20.18;29.34
59391;BME280;53405;57.012;40.984;2023-04-12T11:19:51;100186.09;;;21.57;26.53
59391;BME280;53405;57.012;40.984;2023-04-12T11:22:21;100178.38;;;20.64;27.66
59391;BME280;53405;57.012;40.984;2023-04-12T11:24:53;100157.81;;;19.83;28.54
59391;BME280;53405;57.012;40.984;2023-04-12T11:27:22;100181.25;;;19.10;29.40
59391;BME280;53405;57.012;40.984;2023-04-12T11:29:53;100168.44;;;18.70;30.08
59391;BME280;53405;57.012;40.984;2023-04-12T11:32:24;100162.69;;;19.86;29.42
59391;BME280;53405;57.012;40.984;2023-04-12T11:34:54;100160.50;;;19.71;29.42
59391;BME280;53405;57.012;40.984;2023-04-12T11:37:29;100157.81;;;19.95;28.86
59391;BME280;53405;57.012;40.984;2023-04-12T11:39:57;100160.03;;;19.62;29.05
59391;BME280;53405;57.012;40.984;2023-04-12T11:42:26;100164.88;;;19.18;29.64
59391;BME280;53405;57.012;40.984;2023-04-12T11:44:55;100158.47;;;18.95;29.79
59391;BME280;53405;57.012;40.984;2023-04-12T11:47:25;100149.34;;;18.73;29.96
59391;BME280;53405;57.012;40.984;2023-04-12T11:49:54;100151.41;;;18.59;29.20
59391;BME280;53405;57.012;40.984;2023-04-12T11:52:30;100146.78;;;18.36;30.58
59391;BME280;53405;57.012;40.984;2023-04-12T11:55:02;100146.75;;;18.54;31.50
59391;BME280;53405;57.012;40.984;2023-04-12T11:57:33;100113.25;;;19.60;28.55
59391;BME280;53405;57.012;40.984;2023-04-12T12:00:01;100141.69;;;20.76;26.64
59391;BME280;53405;57.012;40.984;2023-04-12T12:02:38;100138.78;;;21.28;26.83
59391;BME280;53405;57.012;40.984;2023-04-12T12:05:10;100141.59;;;21.39;26.52
59391;BME280;53405;57.012;40.984;2023-04-12T12:07:38;100140.53;;;21.57;25.19
59391;BME280;53405;57.012;40.984;2023-04-12T12:10:06;100103.84;;;22.01;24.68
59391;BME280;53405;57.012;40.984;2023-04-12T12:12:33;100120.91;;;22.40;25.38
59391;BME280;53405;57.012;40.984;2023-04-12T12:15:01;100121.75;;;22.72;24.57
59391;BME280;53405;57.012;40.984;2023-04-12T12:17:29;100124.44;;;22.72;25.17
59391;BME280;53405;57.012;40.984;2023-04-12T12:20:02;100124.09;;;22.36;24.20
59391;BME280;53405;57.012;40.984;2023-04-12T12:22:30;100119.28;;;21.50;25.69
59391;BME280;53405;57.012;40.984;2023-04-12T12:24:59;100116.00;;;21.26;25.55
59391;BME280;53405;57.012;40.984;2023-04-12T12:27:39;100114.38;;;22.30;24.42
59391;BME280;53405;57.012;40.984;2023-04-12T12:30:10;100118.53;;;22.43;24.83
59391;BME280;53405;57.012;40.984;2023-04-12T12:32:38;100112.91;;;22.23;24.91
59391;BME280;53405;57.012;40.984;2023-04-12T12:35:11;100111.16;;;21.62;26.33
59391;BME280;53405;57.012;40.984;2023-04-12T12:37:50;100109.19;;;20.67;27.48
59391;BME280;53405;57.012;40.984;2023-04-12T12:40:18;100103.41;;;20.30;26.90
59391;BME280;53405;57.012;40.984;2023-04-12T12:42:54;100088.28;;;20.07;27.70
59391;BME280;53405;57.012;40.984;2023-04-12T12:45:24;100103.97;;;20.03;26.70
59391;BME280;53405;57.012;40.984;2023-04-12T12:48:00;100091.50;;;19.56;28.79
59391;BME280;53405;57.012;40.984;2023-04-12T12:50:30;100101.47;;;19.73;28.80
59391;BME280;53405;57.012;40.984;2023-04-12T12:53:00;100092.41;;;20.26;27.28
59391;BME280;53405;57.012;40.984;2023-04-12T12:55:29;100091.22;;;20.51;26.30
59391;BME280;53405;57.012;40.984;2023-04-12T12:57:57;100094.72;;;20.51;26.19
59391;BME280;53405;57.012;40.984;2023-04-12T13:00:28;100093.63;;;20.52;26.28
59391;BME280;53405;57.012;40.984;2023-04-12T13:02:56;100091.41;;;20.03;27.17
59391;BME280;53405;57.012;40.984;2023-04-12T13:05:27;100090.94;;;20.07;27.18
59391;BME280;53405;57.012;40.984;2023-04-12T13:07:54;100090.06;;;20.01;27.38
59391;BME280;53405;57.012;40.984;2023-04-12T13:10:22;100091.97;;;19.65;27.35
59391;BME280;53405;57.012;40.984;2023-04-12T13:12:49;100078.81;;;19.87;26.01
59391;BME280;53405;57.012;40.984;2023-04-12T13:15:18;100091.75;;;19.55;27.37
59391;BME280;53405;57.012;40.984;2023-04-12T13:17:52;100053.50;;;19.66;26.33